sensor_id;sensor_type;location;lat;lon;timestamp;temperature;humidity
831;DHT22;397;50.564;7.272;2023-08-06T00:01:23;16.90;99.90
831;DHT22;397;50.564;7.272;2023-08-06T00:03:51;16.90;99.90
831;DHT22;397;50.564;7.272;2023-08-06T00:06:19;16.90;99.90
831;DHT22;397;50.564;7.272;2023-08-06T00:08:46;16.90;99.90
831;DHT22;397;50.564;7.272;2023-08-06T00:11:14;16.90;99.90
831;DHT22;397;50.564;7.272;2023-08-06T00:13:41;16.90;99.90
831;DHT22;397;50.564;7.272;2023-08-06T00:16:11;16.90;99.90
831;DHT22;397;50.564;7.272;2023-08-06T00:18:39;16.70;99.90
831;DHT22;397;50.564;7.272;2023-08-06T00:21:07;16.60;99.90
831;DHT22;397;50.564;7.272;2023-08-06T00:23:35;16.60;99.90
831;DHT22;397;50.564;7.272;2023-08-06T00:26:21;16.60;99.90
831;DHT22;397;50.564;7.272;2023-08-06T00:28:49;16.60;99.90
831;DHT22;397;50.564;7.272;2023-08-06T00:31:16;16.50;99.90
831;DHT22;397;50.564;7.272;2023-08-06T00:33:44;16.50;99.90
831;DHT22;397;50.564;7.272;2023-08-06T00:36:11;16.60;99.90
831;DHT22;397;50.564;7.272;2023-08-06T00:38:39;16.50;99.90
831;DHT22;397;50.564;7.272;2023-08-06T00:41:06;16.50;99.90
831;DHT22;397;50.564;7.272;2023-08-06T00:43:34;16.50;99.90
831;DHT22;397;50.564;7.272;2023-08-06T00:46:02;16.50;99.90
831;DHT22;397;50.564;7.272;2023-08-06T00:48:29;16.60;99.90
831;DHT22;397;50.564;7.272;2023-08-06T00:50:57;16.60;99.90
831;DHT22;397;50.564;7.272;2023-08-06T00:53:24;16.70;99.90
831;DHT22;397;50.564;7.272;2023-08-06T00:55:52;16.70;99.90
831;DHT22;397;50.564;7.272;2023-08-06T00:58:20;16.60;99.90
831;DHT22;397;50.564;7.272;2023-08-06T01:00:47;16.50;99.90
831;DHT22;397;50.564;7.272;2023-08-06T01:03:15;16.50;99.90
831;DHT22;397;50.564;7.272;2023-08-06T01:05:42;16.60;99.90
831;DHT22;397;50.564;7.272;2023-08-06T01:08:28;16.50;99.90
831;DHT22;397;50.564;7.272;2023-08-06T01:13:45;16.50;99.90
831;DHT22;397;50.564;7.272;2023-08-06T01:16:18;16.60;99.90
831;DHT22;397;50.564;7.272;2023-08-06T01:18:47;16.60;99.90
831;DHT22;397;50.564;7.272;2023-08-06T01:21:17;16.50;99.90
831;DHT22;397;50.564;7.272;2023-08-06T01:23:46;16.50;99.90
831;DHT22;397;50.564;7.272;2023-08-06T01:26:33;16.50;99.90
831;DHT22;397;50.564;7.272;2023-08-06T01:31:47;16.40;99.90
831;DHT22;397;50.564;7.272;2023-08-06T01:34:27;16.40;99.90
831;DHT22;397;50.564;7.272;2023-08-06T01:36:55;16.30;99.90
831;DHT22;397;50.564;7.272;2023-08-06T01:39:23;16.20;99.90
831;DHT22;397;50.564;7.272;2023-08-06T01:41:50;16.20;99.90
831;DHT22;397;50.564;7.272;2023-08-06T01:44:18;16.20;99.90
831;DHT22;397;50.564;7.272;2023-08-06T01:46:46;16.20;99.90
831;DHT22;397;50.564;7.272;2023-08-06T01:49:13;16.20;99.90
831;DHT22;397;50.564;7.272;2023-08-06T01:51:41;16.10;99.90
831;DHT22;397;50.564;7.272;2023-08-06T01:54:08;16.10;99.90
831;DHT22;397;50.564;7.272;2023-08-06T01:56:36;16.00;99.90
831;DHT22;397;50.564;7.272;2023-08-06T01:59:03;15.90;99.90
831;DHT22;397;50.564;7.272;2023-08-06T02:01:31;15.90;99.90
831;DHT22;397;50.564;7.272;2023-08-06T02:03:58;15.90;99.90
831;DHT22;397;50.564;7.272;2023-08-06T02:06:26;15.80;99.90
831;DHT22;397;50.564;7.272;2023-08-06T02:08:53;15.80;99.90
831;DHT22;397;50.564;7.272;2023-08-06T02:11:21;15.70;99.90
831;DHT22;397;50.564;7.272;2023-08-06T02:13:48;15.70;99.90
831;DHT22;397;50.564;7.272;2023-08-06T02:16:16;15.70;99.90
831;DHT22;397;50.564;7.272;2023-08-06T02:18:43;15.70;99.90
831;DHT22;397;50.564;7.272;2023-08-06T02:21:11;15.70;99.90
831;DHT22;397;50.564;7.272;2023-08-06T02:23:38;15.70;99.90
831;DHT22;397;50.564;7.272;2023-08-06T02:26:06;15.70;99.90
831;DHT22;397;50.564;7.272;2023-08-06T02:28:33;15.70;99.90
831;DHT22;397;50.564;7.272;2023-08-06T02:31:01;15.70;99.90
831;DHT22;397;50.564;7.272;2023-08-06T02:33:28;15.70;99.90
831;DHT22;397;50.564;7.272;2023-08-06T02:36:00;15.70;99.90
831;DHT22;397;50.564;7.272;2023-08-06T02:38:28;15.80;99.90
831;DHT22;397;50.564;7.272;2023-08-06T02:40:55;15.80;99.90
831;DHT22;397;50.564;7.272;2023-08-06T02:43:23;15.80;99.90
831;DHT22;397;50.564;7.272;2023-08-06T02:45:50;15.80;99.90
831;DHT22;397;50.564;7.272;2023-08-06T02:48:18;15.80;99.90
831;DHT22;397;50.564;7.272;2023-08-06T02:50:45;15.90;99.90
831;DHT22;397;50.564;7.272;2023-08-06T02:53:13;16.00;99.90
831;DHT22;397;50.564;7.272;2023-08-06T02:55:45;15.90;99.90
831;DHT22;397;50.564;7.272;2023-08-06T02:58:14;15.80;99.90
831;DHT22;397;50.564;7.272;2023-08-06T03:00:43;15.80;99.90
831;DHT22;397;50.564;7.272;2023-08-06T03:03:11;15.80;99.90
831;DHT22;397;50.564;7.272;2023-08-06T03:05:38;15.90;99.90
831;DHT22;397;50.564;7.272;2023-08-06T03:08:06;15.90;99.90
831;DHT22;397;50.564;7.272;2023-08-06T03:10:33;15.90;99.90
831;DHT22;397;50.564;7.272;2023-08-06T03:13:02;15.90;99.90
831;DHT22;397;50.564;7.272;2023-08-06T03:15:29;16.00;99.90
831;DHT22;397;50.564;7.272;2023-08-06T03:17:57;15.90;99.90
831;DHT22;397;50.564;7.272;2023-08-06T03:20:25;16.00;99.90
831;DHT22;397;50.564;7.272;2023-08-06T03:22:52;16.00;99.90
831;DHT22;397;50.564;7.272;2023-08-06T03:25:20;16.00;99.90
831;DHT22;397;50.564;7.272;2023-08-06T03:27:47;16.10;99.90
831;DHT22;397;50.564;7.272;2023-08-06T03:30:15;16.10;99.90
831;DHT22;397;50.564;7.272;2023-08-06T03:32:42;16.20;99.90
831;DHT22;397;50.564;7.272;2023-08-06T03:35:10;16.00;99.90
831;DHT22;397;50.564;7.272;2023-08-06T03:37:37;16.10;99.90
831;DHT22;397;50.564;7.272;2023-08-06T03:40:05;16.10;99.90
831;DHT22;397;50.564;7.272;2023-08-06T03:42:33;16.00;99.90
831;DHT22;397;50.564;7.272;2023-08-06T03:45:00;16.10;99.90
831;DHT22;397;50.564;7.272;2023-08-06T03:47:28;16.20;99.90
831;DHT22;397;50.564;7.272;2023-08-06T03:49:55;16.20;99.90
831;DHT22;397;50.564;7.272;2023-08-06T03:52:23;16.20;99.90
831;DHT22;397;50.564;7.272;2023-08-06T03:54:50;16.10;99.90
831;DHT22;397;50.564;7.272;2023-08-06T03:57:18;16.10;99.90
831;DHT22;397;50.564;7.272;2023-08-06T03:59:45;16.10;99.90
831;DHT22;397;50.564;7.272;2023-08-06T04:02:13;16.20;99.90
831;DHT22;397;50.564;7.272;2023-08-06T04:04:40;16.10;99.90
831;DHT22;397;50.564;7.272;2023-08-06T04:07:08;16.10;99.90
831;DHT22;397;50.564;7.272;2023-08-06T04:09:59;16.00;99.90
831;DHT22;397;50.564;7.272;2023-08-06T04:12:06;16.00;99.90
831;DHT22;397;50.564;7.272;2023-08-06T04:14:34;16.00;99.90
831;DHT22;397;50.564;7.272;2023-08-06T04:17:01;16.00;99.90
831;DHT22;397;50.564;7.272;2023-08-06T04:19:29;16.00;99.90
831;DHT22;397;50.564;7.272;2023-08-06T04:21:56;16.00;99.90
831;DHT22;397;50.564;7.272;2023-08-06T04:24:24;16.10;99.90
831;DHT22;397;50.564;7.272;2023-08-06T04:26:51;16.10;99.90
831;DHT22;397;50.564;7.272;2023-08-06T04:29:19;16.00;99.90
831;DHT22;397;50.564;7.272;2023-08-06T04:31:48;16.00;99.90
831;DHT22;397;50.564;7.272;2023-08-06T04:34:15;16.00;99.90
831;DHT22;397;50.564;7.272;2023-08-06T04:36:43;16.00;99.90
831;DHT22;397;50.564;7.272;2023-08-06T04:39:10;16.10;99.90
831;DHT22;397;50.564;7.272;2023-08-06T04:41:38;16.00;99.90
831;DHT22;397;50.564;7.272;2023-08-06T04:44:05;16.10;99.90
831;DHT22;397;50.564;7.272;2023-08-06T04:46:33;16.00;99.90
831;DHT22;397;50.564;7.272;2023-08-06T04:49:00;16.00;99.90
831;DHT22;397;50.564;7.272;2023-08-06T04:51:27;16.10;99.90
831;DHT22;397;50.564;7.272;2023-08-06T04:53:57;16.10;99.90
831;DHT22;397;50.564;7.272;2023-08-06T04:56:24;16.00;99.90
831;DHT22;397;50.564;7.272;2023-08-06T04:58:52;16.00;99.90
831;DHT22;397;50.564;7.272;2023-08-06T05:01:19;16.10;99.90
831;DHT22;397;50.564;7.272;2023-08-06T05:03:47;16.00;99.90
831;DHT22;397;50.564;7.272;2023-08-06T05:06:15;16.20;99.90
831;DHT22;397;50.564;7.272;2023-08-06T05:08:42;16.20;99.90
831;DHT22;397;50.564;7.272;2023-08-06T05:11:10;16.20;99.90
831;DHT22;397;50.564;7.272;2023-08-06T05:13:57;16.20;99.90
831;DHT22;397;50.564;7.272;2023-08-06T05:16:24;16.10;99.90
831;DHT22;397;50.564;7.272;2023-08-06T05:18:52;16.10;99.90
831;DHT22;397;50.564;7.272;2023-08-06T05:21:19;16.00;99.90
831;DHT22;397;50.564;7.272;2023-08-06T05:23:47;16.10;99.90
831;DHT22;397;50.564;7.272;2023-08-06T05:26:14;16.10;99.90
831;DHT22;397;50.564;7.272;2023-08-06T05:28:43;16.10;99.90
831;DHT22;397;50.564;7.272;2023-08-06T05:31:12;16.00;99.90
831;DHT22;397;50.564;7.272;2023-08-06T05:33:40;16.00;99.90
831;DHT22;397;50.564;7.272;2023-08-06T05:36:07;15.90;99.90
831;DHT22;397;50.564;7.272;2023-08-06T05:38:35;15.90;99.90
831;DHT22;397;50.564;7.272;2023-08-06T05:41:02;15.90;99.90
831;DHT22;397;50.564;7.272;2023-08-06T05:43:30;16.00;99.90
831;DHT22;397;50.564;7.272;2023-08-06T05:45:57;15.90;99.90
831;DHT22;397;50.564;7.272;2023-08-06T05:48:25;16.00;99.90
831;DHT22;397;50.564;7.272;2023-08-06T05:50:54;16.00;99.90
831;DHT22;397;50.564;7.272;2023-08-06T05:53:22;16.10;99.90
831;DHT22;397;50.564;7.272;2023-08-06T05:55:49;16.10;99.90
831;DHT22;397;50.564;7.272;2023-08-06T05:58:17;16.20;99.90
831;DHT22;397;50.564;7.272;2023-08-06T06:00:46;16.10;99.90
831;DHT22;397;50.564;7.272;2023-08-06T06:03:14;16.10;99.90
831;DHT22;397;50.564;7.272;2023-08-06T06:05:41;16.20;99.90
831;DHT22;397;50.564;7.272;2023-08-06T06:08:09;16.30;99.90
831;DHT22;397;50.564;7.272;2023-08-06T06:10:36;16.20;99.90
831;DHT22;397;50.564;7.272;2023-08-06T06:13:03;16.20;99.90
831;DHT22;397;50.564;7.272;2023-08-06T06:15:31;16.10;99.90
831;DHT22;397;50.564;7.272;2023-08-06T06:17:58;16.10;99.90
831;DHT22;397;50.564;7.272;2023-08-06T06:20:26;16.30;99.90
831;DHT22;397;50.564;7.272;2023-08-06T06:22:53;16.20;99.90
831;DHT22;397;50.564;7.272;2023-08-06T06:25:21;16.30;99.90
831;DHT22;397;50.564;7.272;2023-08-06T06:27:48;16.40;99.90
831;DHT22;397;50.564;7.272;2023-08-06T06:30:16;16.40;99.90
831;DHT22;397;50.564;7.272;2023-08-06T06:32:43;16.40;99.90
831;DHT22;397;50.564;7.272;2023-08-06T06:35:12;16.40;99.90
831;DHT22;397;50.564;7.272;2023-08-06T06:37:39;16.50;99.90
831;DHT22;397;50.564;7.272;2023-08-06T06:40:07;16.50;99.90
831;DHT22;397;50.564;7.272;2023-08-06T06:42:35;16.60;99.90
831;DHT22;397;50.564;7.272;2023-08-06T06:45:02;16.50;99.90
831;DHT22;397;50.564;7.272;2023-08-06T06:47:30;16.40;99.90
831;DHT22;397;50.564;7.272;2023-08-06T06:49:57;16.60;99.90
831;DHT22;397;50.564;7.272;2023-08-06T06:52:25;16.70;99.90
831;DHT22;397;50.564;7.272;2023-08-06T06:54:52;16.70;99.90
831;DHT22;397;50.564;7.272;2023-08-06T06:57:20;16.60;99.90
831;DHT22;397;50.564;7.272;2023-08-06T06:59:47;16.70;99.90
831;DHT22;397;50.564;7.272;2023-08-06T07:02:15;16.90;99.90
831;DHT22;397;50.564;7.272;2023-08-06T07:04:42;16.90;99.90
831;DHT22;397;50.564;7.272;2023-08-06T07:07:10;16.90;99.90
831;DHT22;397;50.564;7.272;2023-08-06T07:09:37;17.00;99.90
831;DHT22;397;50.564;7.272;2023-08-06T07:12:05;17.10;99.90
831;DHT22;397;50.564;7.272;2023-08-06T07:14:33;17.10;99.90
831;DHT22;397;50.564;7.272;2023-08-06T07:17:00;17.00;99.90
831;DHT22;397;50.564;7.272;2023-08-06T07:19:28;17.10;99.90
831;DHT22;397;50.564;7.272;2023-08-06T07:21:55;17.20;99.90
831;DHT22;397;50.564;7.272;2023-08-06T07:24:22;17.20;99.90
831;DHT22;397;50.564;7.272;2023-08-06T07:26:50;17.30;99.90
831;DHT22;397;50.564;7.272;2023-08-06T07:29:19;17.40;99.90
831;DHT22;397;50.564;7.272;2023-08-06T07:31:48;17.60;99.90
831;DHT22;397;50.564;7.272;2023-08-06T07:34:16;17.60;99.90
831;DHT22;397;50.564;7.272;2023-08-06T07:36:45;17.70;99.90
831;DHT22;397;50.564;7.272;2023-08-06T07:39:13;17.80;99.90
831;DHT22;397;50.564;7.272;2023-08-06T07:41:40;17.80;99.90
831;DHT22;397;50.564;7.272;2023-08-06T07:44:08;17.90;99.90
831;DHT22;397;50.564;7.272;2023-08-06T07:46:35;17.90;99.90
831;DHT22;397;50.564;7.272;2023-08-06T07:49:03;18.00;99.90
831;DHT22;397;50.564;7.272;2023-08-06T07:51:30;17.90;99.90
831;DHT22;397;50.564;7.272;2023-08-06T07:53:58;17.80;99.90
831;DHT22;397;50.564;7.272;2023-08-06T07:56:25;17.90;99.90
831;DHT22;397;50.564;7.272;2023-08-06T07:58:53;18.00;99.90
831;DHT22;397;50.564;7.272;2023-08-06T08:01:20;18.20;99.90
831;DHT22;397;50.564;7.272;2023-08-06T08:03:48;18.40;99.90
831;DHT22;397;50.564;7.272;2023-08-06T08:06:15;18.40;99.90
831;DHT22;397;50.564;7.272;2023-08-06T08:08:43;18.30;99.90
831;DHT22;397;50.564;7.272;2023-08-06T08:11:10;18.30;99.90
831;DHT22;397;50.564;7.272;2023-08-06T08:13:38;18.30;99.90
831;DHT22;397;50.564;7.272;2023-08-06T08:16:05;18.60;99.90
831;DHT22;397;50.564;7.272;2023-08-06T08:18:33;18.70;99.90
831;DHT22;397;50.564;7.272;2023-08-06T08:21:01;18.50;99.90
831;DHT22;397;50.564;7.272;2023-08-06T08:23:28;18.50;99.90
831;DHT22;397;50.564;7.272;2023-08-06T08:25:57;18.40;99.90
831;DHT22;397;50.564;7.272;2023-08-06T08:28:25;18.40;99.90
831;DHT22;397;50.564;7.272;2023-08-06T08:30:52;18.00;99.90
831;DHT22;397;50.564;7.272;2023-08-06T08:33:21;18.20;99.90
831;DHT22;397;50.564;7.272;2023-08-06T08:35:49;18.20;99.90
831;DHT22;397;50.564;7.272;2023-08-06T08:38:16;18.20;99.90
831;DHT22;397;50.564;7.272;2023-08-06T08:40:47;17.90;99.90
831;DHT22;397;50.564;7.272;2023-08-06T08:43:16;18.00;99.90
831;DHT22;397;50.564;7.272;2023-08-06T08:45:45;18.30;99.90
831;DHT22;397;50.564;7.272;2023-08-06T08:48:17;18.30;99.90
831;DHT22;397;50.564;7.272;2023-08-06T08:50:47;18.30;99.90
831;DHT22;397;50.564;7.272;2023-08-06T08:53:17;18.50;99.90
831;DHT22;397;50.564;7.272;2023-08-06T08:55:47;18.40;99.90
831;DHT22;397;50.564;7.272;2023-08-06T08:58:15;18.50;99.90
831;DHT22;397;50.564;7.272;2023-08-06T09:00:43;18.20;99.90
831;DHT22;397;50.564;7.272;2023-08-06T09:03:12;18.20;99.90
831;DHT22;397;50.564;7.272;2023-08-06T09:05:43;18.40;99.90
831;DHT22;397;50.564;7.272;2023-08-06T09:08:12;18.40;99.90
831;DHT22;397;50.564;7.272;2023-08-06T09:10:41;18.50;99.90
831;DHT22;397;50.564;7.272;2023-08-06T09:13:11;18.50;99.90
831;DHT22;397;50.564;7.272;2023-08-06T09:15:38;18.20;99.90
831;DHT22;397;50.564;7.272;2023-08-06T09:18:10;18.10;99.90
831;DHT22;397;50.564;7.272;2023-08-06T09:20:41;18.00;99.90
831;DHT22;397;50.564;7.272;2023-08-06T09:23:10;17.60;99.90
831;DHT22;397;50.564;7.272;2023-08-06T09:25:40;17.80;99.90
831;DHT22;397;50.564;7.272;2023-08-06T09:28:08;18.00;99.90
831;DHT22;397;50.564;7.272;2023-08-06T09:30:37;18.00;99.90
831;DHT22;397;50.564;7.272;2023-08-06T09:33:11;17.90;99.90
831;DHT22;397;50.564;7.272;2023-08-06T09:35:40;17.80;99.90
831;DHT22;397;50.564;7.272;2023-08-06T09:38:09;17.70;99.90
831;DHT22;397;50.564;7.272;2023-08-06T09:40:39;17.50;99.90
831;DHT22;397;50.564;7.272;2023-08-06T09:43:07;17.50;99.90
831;DHT22;397;50.564;7.272;2023-08-06T09:45:36;17.50;99.90
831;DHT22;397;50.564;7.272;2023-08-06T09:48:08;17.60;99.90
831;DHT22;397;50.564;7.272;2023-08-06T09:50:37;17.70;99.90
831;DHT22;397;50.564;7.272;2023-08-06T09:53:06;17.60;99.90
831;DHT22;397;50.564;7.272;2023-08-06T09:55:34;17.30;99.90
831;DHT22;397;50.564;7.272;2023-08-06T09:58:02;17.00;99.90
831;DHT22;397;50.564;7.272;2023-08-06T10:00:32;17.10;99.90
831;DHT22;397;50.564;7.272;2023-08-06T10:03:01;17.10;99.90
831;DHT22;397;50.564;7.272;2023-08-06T10:05:30;17.20;99.90
831;DHT22;397;50.564;7.272;2023-08-06T10:07:59;17.10;99.90
831;DHT22;397;50.564;7.272;2023-08-06T10:10:28;17.00;99.90
831;DHT22;397;50.564;7.272;2023-08-06T10:12:58;16.80;99.90
831;DHT22;397;50.564;7.272;2023-08-06T10:15:29;16.90;99.90
831;DHT22;397;50.564;7.272;2023-08-06T10:17:58;16.70;99.90
831;DHT22;397;50.564;7.272;2023-08-06T10:20:27;16.80;99.90
831;DHT22;397;50.564;7.272;2023-08-06T10:23:05;16.80;99.90
831;DHT22;397;50.564;7.272;2023-08-06T10:25:40;16.70;99.90
831;DHT22;397;50.564;7.272;2023-08-06T10:28:11;16.70;99.90
831;DHT22;397;50.564;7.272;2023-08-06T10:30:47;16.90;99.90
831;DHT22;397;50.564;7.272;2023-08-06T10:33:14;16.90;99.90
831;DHT22;397;50.564;7.272;2023-08-06T10:35:44;16.80;99.90
831;DHT22;397;50.564;7.272;2023-08-06T10:38:21;16.60;99.90
831;DHT22;397;50.564;7.272;2023-08-06T10:43:34;16.50;99.90
831;DHT22;397;50.564;7.272;2023-08-06T10:46:03;16.40;99.90
831;DHT22;397;50.564;7.272;2023-08-06T10:48:37;16.40;99.90
831;DHT22;397;50.564;7.272;2023-08-06T10:51:10;16.40;99.90
831;DHT22;397;50.564;7.272;2023-08-06T10:53:44;16.30;99.90
831;DHT22;397;50.564;7.272;2023-08-06T10:56:15;16.20;99.90
831;DHT22;397;50.564;7.272;2023-08-06T10:58:43;16.20;99.90
831;DHT22;397;50.564;7.272;2023-08-06T11:01:11;16.20;99.90
831;DHT22;397;50.564;7.272;2023-08-06T11:03:39;16.20;99.90
831;DHT22;397;50.564;7.272;2023-08-06T11:06:08;16.00;99.90
831;DHT22;397;50.564;7.272;2023-08-06T11:08:40;16.10;99.90
831;DHT22;397;50.564;7.272;2023-08-06T11:11:15;16.00;99.90
831;DHT22;397;50.564;7.272;2023-08-06T11:13:44;16.00;99.90
831;DHT22;397;50.564;7.272;2023-08-06T11:16:17;15.90;99.90
831;DHT22;397;50.564;7.272;2023-08-06T11:18:45;15.90;99.90
831;DHT22;397;50.564;7.272;2023-08-06T11:21:19;16.00;99.90
831;DHT22;397;50.564;7.272;2023-08-06T11:23:46;16.10;99.90
831;DHT22;397;50.564;7.272;2023-08-06T11:26:19;16.30;99.90
831;DHT22;397;50.564;7.272;2023-08-06T11:28:47;16.40;99.90
831;DHT22;397;50.564;7.272;2023-08-06T11:31:21;16.60;99.90
831;DHT22;397;50.564;7.272;2023-08-06T11:33:56;16.40;99.90
831;DHT22;397;50.564;7.272;2023-08-06T11:36:34;16.50;99.90
831;DHT22;397;50.564;7.272;2023-08-06T11:39:02;16.60;99.90
831;DHT22;397;50.564;7.272;2023-08-06T11:41:33;16.60;99.90
831;DHT22;397;50.564;7.272;2023-08-06T11:44:03;16.50;99.90
831;DHT22;397;50.564;7.272;2023-08-06T11:46:50;16.60;99.90
831;DHT22;397;50.564;7.272;2023-08-06T11:49:20;17.00;99.90
831;DHT22;397;50.564;7.272;2023-08-06T11:51:50;17.00;99.90
831;DHT22;397;50.564;7.272;2023-08-06T11:54:30;17.10;99.90
831;DHT22;397;50.564;7.272;2023-08-06T11:56:48;17.10;99.90
831;DHT22;397;50.564;7.272;2023-08-06T11:59:16;16.90;99.90
831;DHT22;397;50.564;7.272;2023-08-06T12:01:45;16.90;99.90
831;DHT22;397;50.564;7.272;2023-08-06T12:04:12;16.80;99.90
831;DHT22;397;50.564;7.272;2023-08-06T12:06:43;16.90;99.90
831;DHT22;397;50.564;7.272;2023-08-06T12:09:10;17.00;99.90
831;DHT22;397;50.564;7.272;2023-08-06T12:11:37;17.10;99.90
831;DHT22;397;50.564;7.272;2023-08-06T12:14:05;17.00;99.90
831;DHT22;397;50.564;7.272;2023-08-06T12:16:33;16.90;99.90
831;DHT22;397;50.564;7.272;2023-08-06T12:19:02;16.90;99.90
831;DHT22;397;50.564;7.272;2023-08-06T12:21:30;16.80;99.90
831;DHT22;397;50.564;7.272;2023-08-06T12:23:58;16.70;99.90
831;DHT22;397;50.564;7.272;2023-08-06T12:26:25;16.80;99.90
831;DHT22;397;50.564;7.272;2023-08-06T12:28:53;16.70;99.90
831;DHT22;397;50.564;7.272;2023-08-06T12:31:21;16.70;99.90
831;DHT22;397;50.564;7.272;2023-08-06T12:33:49;16.80;99.90
831;DHT22;397;50.564;7.272;2023-08-06T12:36:17;16.80;99.90
831;DHT22;397;50.564;7.272;2023-08-06T12:38:44;16.80;99.90
831;DHT22;397;50.564;7.272;2023-08-06T12:41:12;16.70;99.90
831;DHT22;397;50.564;7.272;2023-08-06T12:43:39;16.80;99.90
831;DHT22;397;50.564;7.272;2023-08-06T12:46:07;16.80;99.90
831;DHT22;397;50.564;7.272;2023-08-06T12:48:34;16.80;99.90
831;DHT22;397;50.564;7.272;2023-08-06T12:51:02;16.60;99.90
831;DHT22;397;50.564;7.272;2023-08-06T12:53:29;16.70;99.90
831;DHT22;397;50.564;7.272;2023-08-06T12:55:57;16.80;99.90
831;DHT22;397;50.564;7.272;2023-08-06T12:58:24;16.80;99.90
831;DHT22;397;50.564;7.272;2023-08-06T13:00:52;16.90;99.90
831;DHT22;397;50.564;7.272;2023-08-06T13:03:20;16.90;99.90
831;DHT22;397;50.564;7.272;2023-08-06T13:05:48;16.90;99.90
831;DHT22;397;50.564;7.272;2023-08-06T13:08:17;16.90;99.90
831;DHT22;397;50.564;7.272;2023-08-06T13:10:44;16.90;99.90
831;DHT22;397;50.564;7.272;2023-08-06T13:13:12;16.80;99.90
831;DHT22;397;50.564;7.272;2023-08-06T13:15:39;16.70;99.90
831;DHT22;397;50.564;7.272;2023-08-06T13:18:07;16.60;99.90
831;DHT22;397;50.564;7.272;2023-08-06T13:20:34;16.70;99.90
831;DHT22;397;50.564;7.272;2023-08-06T13:23:02;16.70;99.90
831;DHT22;397;50.564;7.272;2023-08-06T13:25:29;16.70;99.90
831;DHT22;397;50.564;7.272;2023-08-06T13:27:57;16.60;99.90
831;DHT22;397;50.564;7.272;2023-08-06T13:30:24;16.50;99.90
831;DHT22;397;50.564;7.272;2023-08-06T13:32:52;16.40;99.90
831;DHT22;397;50.564;7.272;2023-08-06T13:35:19;16.20;99.90
831;DHT22;397;50.564;7.272;2023-08-06T13:37:47;16.10;99.90
831;DHT22;397;50.564;7.272;2023-08-06T13:40:14;16.10;99.90
831;DHT22;397;50.564;7.272;2023-08-06T13:42:42;16.10;99.90
831;DHT22;397;50.564;7.272;2023-08-06T13:45:10;16.00;99.90
831;DHT22;397;50.564;7.272;2023-08-06T13:47:37;16.10;99.90
831;DHT22;397;50.564;7.272;2023-08-06T13:50:05;15.90;99.90
831;DHT22;397;50.564;7.272;2023-08-06T13:52:33;15.90;99.90
831;DHT22;397;50.564;7.272;2023-08-06T13:55:02;16.00;99.90
831;DHT22;397;50.564;7.272;2023-08-06T13:57:30;16.00;99.90
831;DHT22;397;50.564;7.272;2023-08-06T13:59:57;15.90;99.90
831;DHT22;397;50.564;7.272;2023-08-06T14:02:25;15.90;99.90
831;DHT22;397;50.564;7.272;2023-08-06T14:04:53;15.80;99.90
831;DHT22;397;50.564;7.272;2023-08-06T14:07:21;15.90;99.90
831;DHT22;397;50.564;7.272;2023-08-06T14:09:48;15.90;99.90
831;DHT22;397;50.564;7.272;2023-08-06T14:12:16;15.90;99.90
831;DHT22;397;50.564;7.272;2023-08-06T14:14:43;16.00;99.90
831;DHT22;397;50.564;7.272;2023-08-06T14:17:11;15.90;99.90
831;DHT22;397;50.564;7.272;2023-08-06T14:19:38;16.00;99.90
831;DHT22;397;50.564;7.272;2023-08-06T14:22:06;16.10;99.90
831;DHT22;397;50.564;7.272;2023-08-06T14:24:33;16.10;99.90
831;DHT22;397;50.564;7.272;2023-08-06T14:27:01;16.00;99.90
831;DHT22;397;50.564;7.272;2023-08-06T14:29:30;16.10;99.90
831;DHT22;397;50.564;7.272;2023-08-06T14:31:57;16.10;99.90
831;DHT22;397;50.564;7.272;2023-08-06T14:34:25;15.90;99.90
831;DHT22;397;50.564;7.272;2023-08-06T14:36:54;15.90;99.90
831;DHT22;397;50.564;7.272;2023-08-06T14:39:22;15.80;99.90
831;DHT22;397;50.564;7.272;2023-08-06T14:41:49;16.00;99.90
831;DHT22;397;50.564;7.272;2023-08-06T14:44:17;15.90;99.90
831;DHT22;397;50.564;7.272;2023-08-06T14:46:45;15.90;99.90
831;DHT22;397;50.564;7.272;2023-08-06T14:49:12;15.80;99.90
831;DHT22;397;50.564;7.272;2023-08-06T14:51:40;16.00;99.90
831;DHT22;397;50.564;7.272;2023-08-06T14:54:07;16.00;99.90
831;DHT22;397;50.564;7.272;2023-08-06T14:56:35;16.10;99.90
831;DHT22;397;50.564;7.272;2023-08-06T14:59:02;16.10;99.90
831;DHT22;397;50.564;7.272;2023-08-06T15:01:30;16.20;99.90
831;DHT22;397;50.564;7.272;2023-08-06T15:03:58;16.20;99.90
831;DHT22;397;50.564;7.272;2023-08-06T15:06:25;16.10;99.90
831;DHT22;397;50.564;7.272;2023-08-06T15:08:53;16.20;99.90
831;DHT22;397;50.564;7.272;2023-08-06T15:11:22;16.20;99.90
831;DHT22;397;50.564;7.272;2023-08-06T15:13:50;16.30;99.90
831;DHT22;397;50.564;7.272;2023-08-06T15:16:17;16.10;99.90
831;DHT22;397;50.564;7.272;2023-08-06T15:18:45;16.00;99.90
831;DHT22;397;50.564;7.272;2023-08-06T15:21:12;16.00;99.90
831;DHT22;397;50.564;7.272;2023-08-06T15:23:40;16.00;99.90
831;DHT22;397;50.564;7.272;2023-08-06T15:26:07;16.00;99.90
831;DHT22;397;50.564;7.272;2023-08-06T15:28:35;15.80;99.90
831;DHT22;397;50.564;7.272;2023-08-06T15:31:02;15.80;99.90
831;DHT22;397;50.564;7.272;2023-08-06T15:33:31;15.90;99.90
831;DHT22;397;50.564;7.272;2023-08-06T15:35:59;15.90;99.90
831;DHT22;397;50.564;7.272;2023-08-06T15:38:26;15.90;99.90
831;DHT22;397;50.564;7.272;2023-08-06T15:40:54;15.90;99.90
831;DHT22;397;50.564;7.272;2023-08-06T15:43:22;15.70;99.90
831;DHT22;397;50.564;7.272;2023-08-06T15:45:49;15.80;99.90
831;DHT22;397;50.564;7.272;2023-08-06T15:48:17;15.80;99.90
831;DHT22;397;50.564;7.272;2023-08-06T15:50:44;15.80;99.90
831;DHT22;397;50.564;7.272;2023-08-06T15:53:12;15.80;99.90
831;DHT22;397;50.564;7.272;2023-08-06T15:55:40;15.80;99.90
831;DHT22;397;50.564;7.272;2023-08-06T15:58:07;15.70;99.90
831;DHT22;397;50.564;7.272;2023-08-06T16:00:35;15.50;99.90
831;DHT22;397;50.564;7.272;2023-08-06T16:03:03;15.50;99.90
831;DHT22;397;50.564;7.272;2023-08-06T16:05:30;15.60;99.90
831;DHT22;397;50.564;7.272;2023-08-06T16:07:58;15.70;99.90
831;DHT22;397;50.564;7.272;2023-08-06T16:10:25;15.70;99.90
831;DHT22;397;50.564;7.272;2023-08-06T16:12:52;15.70;99.90
831;DHT22;397;50.564;7.272;2023-08-06T16:15:20;15.60;99.90
831;DHT22;397;50.564;7.272;2023-08-06T16:17:47;15.70;99.90
831;DHT22;397;50.564;7.272;2023-08-06T16:20:15;15.70;99.90
831;DHT22;397;50.564;7.272;2023-08-06T16:22:42;15.90;99.90
831;DHT22;397;50.564;7.272;2023-08-06T16:25:10;15.80;99.90
831;DHT22;397;50.564;7.272;2023-08-06T16:27:42;15.60;99.90
831;DHT22;397;50.564;7.272;2023-08-06T16:30:09;15.60;99.90
831;DHT22;397;50.564;7.272;2023-08-06T16:32:37;15.60;99.90
831;DHT22;397;50.564;7.272;2023-08-06T16:35:06;15.60;99.90
831;DHT22;397;50.564;7.272;2023-08-06T16:37:36;15.50;99.90
831;DHT22;397;50.564;7.272;2023-08-06T16:40:07;15.70;99.90
831;DHT22;397;50.564;7.272;2023-08-06T16:42:35;15.60;99.90
831;DHT22;397;50.564;7.272;2023-08-06T16:45:03;15.60;99.90
831;DHT22;397;50.564;7.272;2023-08-06T16:47:31;15.60;99.90
831;DHT22;397;50.564;7.272;2023-08-06T16:49:58;15.60;99.90